Accueil
METAR-TAF:

METAR-TAF

Aéroports :

Aéroport international de Shanghai-Pudong

Shanghai-Pudong, Chine

latitude: 31-07N, longitude: 121-46E, altitude: 4 m

Observation

Le bulletin a été fait il y a 37 minutes, à 16:30 UTC
Vent 4 kt de nord/nord-est, variant entre nord et est/nord-est
Température 16°C
Humidité 88%
Pression 1024 hPa
Visibilité 10 km ou plus
pas de nuages en-dessous de 1500 mètres et pas de cumulonimbus.

METAR: ZSPD 211630Z 03002MPS 360V070 CAVOK 16/14 Q1024 NOSIG

Heure: 01:07 (17:07 UTC)

Prévision

Le bulletin a été fait il y a 7 heures et 49 minutes, à 09:18 UTC
Prévision valable du 21 à 12 UTC au 22 à 12 UTC
Vent 8 kt de est/nord-est
Visibilité: 5000 m
Nuages fragmentés à une hauteur de 2000 ft
brume

TAF: ZSPD 210918Z 2112/2212 06004MPS 5000 BR BKN020 TX21/2206Z TN13/2121Z

Observations et prévisions météorologiques de plus de 4000 aéroports (messages METAR et TAF).

Les stations disponibles sont représentées par des disques jaunes et rouges sur la carte.

Passer la souris dessus pour voir le nom de la station.

Cliquer dessus pour voir les observations et prévisions météorologiques.

Pour changer de carte: cliquez sur les boutons verts avec une croix noire pour zoomer, sur le bouton vert avec un tiret pour effectuer un zoom arrière, ou sur les flèches vertes pour les cartes adjacentes.


METAR-TAF: